createdAt,value
2022-09-20T00:02:21.855Z,98058.63
2022-09-20T00:04:49.822Z,98021.19
2022-09-20T00:07:16.897Z,98067.56
2022-09-20T00:09:43.873Z,98038.19
2022-09-20T00:12:10.719Z,98047.63
2022-09-20T00:14:37.966Z,98046.50
2022-09-20T00:17:05.080Z,98055.69
2022-09-20T00:19:32.034Z,98056.22
2022-09-20T00:21:59.017Z,98048.72
2022-09-20T00:24:26.080Z,98096.66
2022-09-20T00:26:53.019Z,98056.00
2022-09-20T00:29:20.055Z,98059.72
2022-09-20T00:31:47.393Z,98055.16
2022-09-20T00:34:32.936Z,98054.13
2022-09-20T00:36:59.885Z,98067.78
2022-09-20T00:39:27.058Z,98081.75
2022-09-20T00:41:54.011Z,98073.09
2022-09-20T00:44:41.141Z,98063.44
2022-09-20T00:47:15.408Z,98087.72
2022-09-20T00:49:42.486Z,98081.47
2022-09-20T00:52:10.652Z,98083.69
2022-09-20T00:54:37.768Z,98089.84
2022-09-20T00:57:04.743Z,98091.22
2022-09-20T00:59:38.851Z,98087.72
2022-09-20T01:02:13.219Z,98089.31
2022-09-20T01:04:41.600Z,98101.97
2022-09-20T01:07:11.472Z,98097.16
2022-09-20T01:09:38.499Z,98107.84
2022-09-20T01:12:07.958Z,98108.34
2022-09-20T01:14:35.520Z,98128.59
2022-09-20T01:17:04.704Z,98112.75
2022-09-20T01:19:31.601Z,98153.66
2022-09-20T01:21:59.942Z,98114.88
2022-09-20T01:24:44.674Z,98123.47
2022-09-20T01:27:48.808Z,98133.72
2022-09-20T01:30:20.748Z,98124.84
2022-09-20T01:33:08.984Z,98148.00
2022-09-20T01:35:36.978Z,98138.59
2022-09-20T01:38:39.204Z,98144.50
2022-09-20T01:41:24.731Z,98142.31
2022-09-20T01:43:54.171Z,98143.16
2022-09-20T01:46:31.713Z,98153.66
2022-09-20T01:49:25.008Z,98154.19
2022-09-20T01:52:07.165Z,98159.00
2022-09-20T01:54:52.423Z,98165.44
2022-09-20T01:57:50.462Z,98154.66
2022-09-20T02:00:26.597Z,98177.22
2022-09-20T02:03:18.175Z,98158.06
2022-09-20T02:05:57.067Z,98184.13
2022-09-20T02:08:58.217Z,98177.75
2022-09-20T02:12:06.697Z,98188.72
2022-09-20T02:15:04.097Z,98187.94
2022-09-20T02:17:38.850Z,98179.88
2022-09-20T02:20:20.782Z,98193.38
2022-09-20T02:23:12.626Z,98190.75
2022-09-20T02:25:49.778Z,98196.38
2022-09-20T02:28:51.739Z,98211.72
2022-09-20T02:31:36.869Z,98205.53
2022-09-20T02:34:03.639Z,98237.78
2022-09-20T02:37:18.865Z,98228.94
2022-09-20T02:39:59.302Z,98220.34
2022-09-20T02:42:38.968Z,98228.44
2022-09-20T02:45:10.101Z,98238.13
2022-09-20T02:47:41.408Z,98242.69
2022-09-20T02:50:32.146Z,98252.91
2022-09-20T02:53:31.467Z,98235.28
2022-09-20T02:56:04.960Z,98242.72
2022-09-20T02:58:46.785Z,98252.00
2022-09-20T03:01:31.387Z,98259.63
2022-09-20T03:04:21.475Z,98268.72
2022-09-20T03:07:24.553Z,98299.25
2022-09-20T03:10:21.587Z,98282.16
2022-09-20T03:13:23.099Z,98279.72
2022-09-20T03:16:05.654Z,98305.31
2022-09-20T03:18:45.014Z,98296.72
2022-09-20T03:21:42.741Z,98301.88
2022-09-20T03:24:20.023Z,98313.78
2022-09-20T03:27:25.379Z,98315.09
2022-09-20T03:30:26.355Z,98333.44
2022-09-20T03:33:08.512Z,98316.25
2022-09-20T03:35:53.904Z,98321.63
2022-09-20T03:38:32.703Z,98327.81
2022-09-20T03:41:15.454Z,98330.03
2022-09-20T03:43:52.975Z,98327.06
2022-09-20T03:46:22.713Z,98339.50
2022-09-20T03:48:49.714Z,98367.22
2022-09-20T03:51:35.523Z,98360.00
2022-09-20T03:54:11.291Z,98346.78
2022-09-20T03:57:07.860Z,98366.47
2022-09-20T03:59:40.421Z,98362.47
2022-09-20T04:02:35.227Z,98354.69
2022-09-20T04:05:07.848Z,98370.84
2022-09-20T04:07:53.179Z,98368.72
2022-09-20T04:10:41.875Z,98378.97
2022-09-20T04:13:27.434Z,98378.75
2022-09-20T04:16:23.605Z,98370.94
2022-09-20T04:19:16.489Z,98394.69
2022-09-20T04:21:57.119Z,98396.91
2022-09-20T04:24:30.188Z,98403.34
2022-09-20T04:27:24.487Z,98420.63
2022-09-20T04:29:58.431Z,98429.28
2022-09-20T04:32:31.151Z,98419.03
2022-09-20T04:35:41.398Z,98407.56
2022-09-20T04:38:12.785Z,98422.41
2022-09-20T04:41:00.639Z,98422.78
2022-09-20T04:43:36.515Z,98412.75
2022-09-20T04:46:44.804Z,98431.31
2022-09-20T04:49:19.165Z,98427.22
2022-09-20T04:51:55.119Z,98433.25
2022-09-20T04:54:37.182Z,98430.31
2022-09-20T04:57:26.408Z,98431.41
2022-09-20T05:00:16.280Z,98447.09
2022-09-20T05:02:58.534Z,98460.06
2022-09-20T05:05:50.796Z,98468.66
2022-09-20T05:08:45.221Z,98463.06
2022-09-20T05:11:25.822Z,98454.25
2022-09-20T05:17:12.215Z,98469.88
2022-09-20T05:19:51.031Z,98474.22
2022-09-20T05:22:53.213Z,98468.75
2022-09-20T05:25:23.281Z,98500.03
2022-09-20T05:27:57.450Z,98494.84
2022-09-20T05:30:33.797Z,98492.13
2022-09-20T05:34:03.301Z,98504.09
2022-09-20T05:36:48.892Z,98506.41
2022-09-20T05:39:34.168Z,98507.00
2022-09-20T05:42:10.128Z,98519.53
2022-09-20T05:45:14.419Z,98533.38
2022-09-20T05:48:01.942Z,98516.59
2022-09-20T05:51:03.817Z,98512.34
2022-09-20T05:53:58.477Z,98522.91
2022-09-20T05:56:52.946Z,98532.38
2022-09-20T05:59:22.726Z,98523.91
2022-09-20T06:02:00.956Z,98526.53
2022-09-20T06:04:39.729Z,98540.28
2022-09-20T06:07:06.626Z,98544.88
2022-09-20T06:09:48.847Z,98533.00
2022-09-20T06:12:35.816Z,98549.25
2022-09-20T06:15:26.549Z,98558.63
2022-09-20T06:18:17.567Z,98577.56
2022-09-20T06:21:05.344Z,98564.25
2022-09-20T06:23:32.580Z,98559.47
2022-09-20T06:26:07.965Z,98560.31
2022-09-20T06:28:44.352Z,98572.75
2022-09-20T06:31:11.399Z,98568.34
2022-09-20T06:33:56.812Z,98588.50
2022-09-20T06:36:47.936Z,98581.94
2022-09-20T06:40:11.358Z,98585.78
2022-09-20T06:42:39.250Z,98565.03
2022-09-20T06:45:06.711Z,98576.38
2022-09-20T06:47:38.029Z,98583.13
2022-09-20T06:50:06.427Z,98590.16
2022-09-20T06:52:34.665Z,98586.38
2022-09-20T06:55:08.972Z,98607.19
2022-09-20T06:57:37.968Z,98592.63
2022-09-20T07:00:07.016Z,98605.00
2022-09-20T07:02:33.969Z,98606.81
2022-09-20T07:05:00.942Z,98611.19
2022-09-20T07:07:28.320Z,98620.94
2022-09-20T07:09:55.250Z,98612.00
2022-09-20T07:12:22.185Z,98619.56
2022-09-20T07:14:50.718Z,98616.59
2022-09-20T07:17:17.777Z,98629.00
2022-09-20T07:19:44.650Z,98628.44
2022-09-20T07:22:11.561Z,98626.03
2022-09-20T07:24:39.195Z,98653.41
2022-09-20T07:27:09.599Z,98635.38
2022-09-20T07:29:37.623Z,98631.91
2022-09-20T07:32:04.633Z,98655.72
2022-09-20T07:34:32.186Z,98652.06
2022-09-20T07:37:00.029Z,98659.13
2022-09-20T07:39:27.452Z,98673.75
2022-09-20T07:41:54.343Z,98680.28
2022-09-20T07:44:21.656Z,98664.13
2022-09-20T07:46:52.959Z,98642.44
2022-09-20T07:49:21.530Z,98635.44
2022-09-20T07:51:49.984Z,98642.22
2022-09-20T07:54:17.391Z,98638.41
2022-09-20T07:56:45.111Z,98638.69
2022-09-20T07:59:14.003Z,98639.25
2022-09-20T08:01:44.220Z,98651.97
2022-09-20T08:04:13.159Z,98646.91
2022-09-20T08:06:45.025Z,98646.50
2022-09-20T08:09:13.607Z,98642.69
2022-09-20T08:11:42.927Z,98635.16
2022-09-20T08:14:15.784Z,98642.66
2022-09-20T08:16:46.621Z,98648.69
2022-09-20T08:19:19.463Z,98647.53
2022-09-20T08:21:46.944Z,98658.31
2022-09-20T08:24:16.711Z,98656.13
2022-09-20T08:26:46.676Z,98663.44
2022-09-20T08:29:15.189Z,98660.75
2022-09-20T08:31:42.864Z,98664.31
2022-09-20T08:34:13.794Z,98669.19
2022-09-20T08:36:50.967Z,98666.72
2022-09-20T08:42:15.770Z,98676.78
2022-09-20T08:44:58.109Z,98680.03
2022-09-20T08:47:29.655Z,98683.06
2022-09-20T08:49:59.414Z,98676.06
2022-09-20T08:52:37.505Z,98675.25
2022-09-20T08:55:17.790Z,98687.19
2022-09-20T08:57:49.349Z,98682.72
2022-09-20T09:00:19.279Z,98687.47
2022-09-20T09:02:51.502Z,98692.22
2022-09-20T09:05:37.418Z,98733.16
2022-09-20T09:08:10.617Z,98686.91
2022-09-20T09:10:46.110Z,98685.53
2022-09-20T09:13:23.000Z,98680.31
2022-09-20T09:15:57.431Z,98706.88
2022-09-20T09:18:33.274Z,98706.91
2022-09-20T09:21:04.371Z,98703.69
2022-09-20T09:23:41.493Z,98706.50
2022-09-20T09:26:17.854Z,98750.06
2022-09-20T09:28:45.012Z,98721.47
2022-09-20T09:31:30.424Z,98742.94
2022-09-20T09:33:59.181Z,98747.72
2022-09-20T09:36:27.278Z,98714.31
2022-09-20T09:39:27.332Z,98715.19
2022-09-20T09:42:02.490Z,98715.19
2022-09-20T09:44:34.055Z,98736.22
2022-09-20T09:47:02.398Z,98727.44
2022-09-20T09:49:35.332Z,98748.34
2022-09-20T09:52:15.951Z,98734.03
2022-09-20T09:54:50.747Z,98744.84
2022-09-20T09:57:30.681Z,98735.94
2022-09-20T10:00:19.760Z,98732.75
2022-09-20T10:03:13.041Z,98736.63
2022-09-20T10:06:04.763Z,98731.34
2022-09-20T10:08:51.183Z,98742.84
2022-09-20T10:11:18.125Z,98740.22
2022-09-20T10:14:06.506Z,98762.44
2022-09-20T10:16:52.035Z,98757.59
2022-09-20T10:19:27.888Z,98749.66
2022-09-20T10:22:11.411Z,98749.63
2022-09-20T10:25:06.753Z,98752.84
2022-09-20T10:28:03.008Z,98755.97
2022-09-20T10:31:10.472Z,98744.38
2022-09-20T10:33:56.282Z,98754.25
2022-09-20T10:36:38.100Z,98767.00
2022-09-20T10:39:22.899Z,98762.47
2022-09-20T10:42:48.453Z,98764.72
2022-09-20T10:45:50.816Z,98784.25
2022-09-20T10:48:49.256Z,98787.88
2022-09-20T10:51:53.118Z,98776.53
2022-09-20T10:54:41.822Z,98790.44
2022-09-20T10:57:37.796Z,98794.50
2022-09-20T11:00:42.315Z,98804.34
2022-09-20T11:03:26.282Z,98787.78
2022-09-20T11:06:12.446Z,98810.56
2022-09-20T11:08:40.335Z,98829.47
2022-09-20T11:11:19.908Z,98834.38
2022-09-20T11:14:04.051Z,98850.34
2022-09-20T11:16:39.246Z,98845.84
2022-09-20T11:19:31.480Z,98833.09
2022-09-20T11:22:09.388Z,98835.59
2022-09-20T11:24:43.539Z,98853.38
2022-09-20T11:27:36.071Z,98848.06
2022-09-20T11:30:08.437Z,98855.25
2022-09-20T11:33:07.636Z,98859.78
2022-09-20T11:35:38.949Z,98851.19
2022-09-20T11:38:29.480Z,98849.03
2022-09-20T11:41:02.916Z,98860.41
2022-09-20T11:43:31.270Z,98855.91
2022-09-20T11:46:10.160Z,98855.06
2022-09-20T11:48:46.674Z,98897.31
2022-09-20T11:51:16.817Z,98857.56
2022-09-20T11:54:11.216Z,98866.81
2022-09-20T11:56:39.116Z,98869.66
2022-09-20T11:59:16.627Z,98855.25
2022-09-20T12:01:43.903Z,98890.78
2022-09-20T12:04:34.742Z,98867.06
2022-09-20T12:07:36.274Z,98876.84
2022-09-20T12:10:10.040Z,98876.78
2022-09-20T12:12:44.208Z,98878.06
2022-09-20T12:15:34.157Z,98882.38
2022-09-20T12:18:09.209Z,98899.47
2022-09-20T12:20:58.221Z,98872.47
2022-09-20T12:23:43.455Z,98882.75
2022-09-20T12:26:21.692Z,98890.09
2022-09-20T12:28:50.480Z,98883.78
2022-09-20T12:31:31.987Z,98882.41
2022-09-20T12:34:12.351Z,98871.34
2022-09-20T12:37:05.162Z,98877.41
2022-09-20T12:39:37.035Z,98891.72
2022-09-20T12:42:23.893Z,98880.50
2022-09-20T12:44:51.987Z,98884.06
2022-09-20T12:47:25.138Z,98896.31
2022-09-20T12:50:12.985Z,98900.41
2022-09-20T12:52:58.127Z,98880.97
2022-09-20T12:55:40.184Z,98893.75
2022-09-20T12:58:16.148Z,98908.97
2022-09-20T13:01:00.940Z,98891.50
2022-09-20T13:03:28.841Z,98903.69
2022-09-20T13:06:14.863Z,98899.63
2022-09-20T13:08:57.343Z,98916.53
2022-09-20T13:11:46.494Z,98914.44
2022-09-20T13:14:19.031Z,98912.25
2022-09-20T13:16:55.240Z,98919.91
2022-09-20T13:19:30.758Z,98900.91
2022-09-20T13:22:00.918Z,98908.38
2022-09-20T13:24:32.437Z,98899.66
2022-09-20T13:27:06.657Z,98902.16
2022-09-20T13:29:41.352Z,98902.28
2022-09-20T13:32:28.781Z,98904.75
2022-09-20T13:35:16.944Z,98913.41
2022-09-20T13:37:59.887Z,98913.94
2022-09-20T13:40:38.668Z,98917.22
2022-09-20T13:43:23.740Z,98918.91
2022-09-20T13:45:59.881Z,98920.63
2022-09-20T13:48:28.627Z,98907.72
2022-09-20T13:50:56.748Z,98911.41
2022-09-20T13:53:42.391Z,98914.97
2022-09-20T13:56:14.743Z,98912.69
2022-09-20T13:58:42.628Z,98915.34
2022-09-20T14:01:24.817Z,98918.66
2022-09-20T14:03:53.486Z,98906.94
2022-09-20T14:06:27.175Z,98923.75
2022-09-20T14:08:54.394Z,98914.47
2022-09-20T14:11:22.288Z,98922.56
2022-09-20T14:13:52.317Z,98922.41
2022-09-20T14:16:21.025Z,98914.53
2022-09-20T14:18:49.824Z,98930.59
2022-09-20T14:21:28.092Z,98924.09
2022-09-20T14:24:02.933Z,98926.13
2022-09-20T14:26:37.767Z,98927.66
2022-09-20T14:29:40.031Z,98942.59
2022-09-20T14:32:10.778Z,98942.66
2022-09-20T14:34:41.525Z,98947.69
2022-09-20T14:37:22.517Z,98956.91
2022-09-20T14:39:53.367Z,98954.13
2022-09-20T14:42:22.521Z,98955.28
2022-09-20T14:44:53.231Z,98951.97
2022-09-20T14:47:47.588Z,98956.38
2022-09-20T14:50:25.236Z,98965.50
2022-09-20T14:53:13.347Z,98964.91
2022-09-20T14:56:03.384Z,98968.34
2022-09-20T14:58:34.180Z,98964.38
2022-09-20T15:01:23.642Z,98965.06
2022-09-20T15:03:52.478Z,98957.28
2022-09-20T15:06:19.795Z,98956.53
2022-09-20T15:08:47.220Z,98968.91
2022-09-20T15:11:18.937Z,98966.88
2022-09-20T15:13:49.001Z,98965.91
2022-09-20T15:16:18.276Z,98967.88
2022-09-20T15:18:45.521Z,98984.47
2022-09-20T15:21:13.147Z,98976.19
2022-09-20T15:23:40.978Z,98983.84
2022-09-20T15:26:10.238Z,98981.81
2022-09-20T15:28:37.389Z,98983.56
2022-09-20T15:31:07.558Z,98984.00
2022-09-20T15:33:34.525Z,98994.97
2022-09-20T15:36:02.486Z,98996.22
2022-09-20T15:38:29.491Z,98999.13
2022-09-20T15:40:56.928Z,99004.16
2022-09-20T15:43:28.309Z,99002.13
2022-09-20T15:45:57.892Z,99002.31
2022-09-20T15:48:27.147Z,99008.75
2022-09-20T15:51:06.841Z,99011.06
2022-09-20T15:53:44.782Z,99014.63
2022-09-20T15:56:16.751Z,99016.69
2022-09-20T15:58:47.419Z,99021.44
2022-09-20T16:01:18.266Z,99024.94
2022-09-20T16:03:46.497Z,99029.97
2022-09-20T16:06:16.316Z,99028.03
2022-09-20T16:08:43.879Z,99044.22
2022-09-20T16:11:13.569Z,99042.81
2022-09-20T16:13:43.543Z,99038.50
2022-09-20T16:16:13.502Z,99044.03
2022-09-20T16:18:59.197Z,99039.13
2022-09-20T16:21:27.748Z,99044.44
2022-09-20T16:23:56.641Z,99042.06
2022-09-20T16:26:25.736Z,99036.94
2022-09-20T16:28:57.922Z,99037.88
2022-09-20T16:31:37.414Z,99045.97
2022-09-20T16:34:12.653Z,99050.19
2022-09-20T16:36:43.862Z,99046.66
2022-09-20T16:39:12.353Z,99045.75
2022-09-20T16:41:40.800Z,99045.66
2022-09-20T16:44:08.467Z,99049.06
2022-09-20T16:46:37.226Z,99047.66
2022-09-20T16:49:07.420Z,99049.22
2022-09-20T16:51:43.040Z,99054.59
2022-09-20T16:54:12.737Z,99051.81
2022-09-20T16:56:45.368Z,99054.28
2022-09-20T16:59:14.083Z,99055.91
2022-09-20T17:01:41.412Z,99059.56
2022-09-20T17:04:09.069Z,99054.53
2022-09-20T17:06:37.692Z,99066.59
2022-09-20T17:09:11.113Z,99066.22
2022-09-20T17:11:41.911Z,99064.25
2022-09-20T17:14:17.404Z,99062.97
2022-09-20T17:16:48.237Z,99059.00
2022-09-20T17:19:23.104Z,99071.84
2022-09-20T17:21:53.010Z,99066.34
2022-09-20T17:24:21.776Z,99070.34
2022-09-20T17:26:50.474Z,99072.44
2022-09-20T17:29:20.818Z,99066.47
2022-09-20T17:31:54.941Z,99073.38
2022-09-20T17:34:26.571Z,99067.88
2022-09-20T17:36:56.730Z,99075.56
2022-09-20T17:39:24.117Z,99074.63
2022-09-20T17:41:51.278Z,99082.13
2022-09-20T17:44:18.815Z,99074.50
2022-09-20T17:46:51.855Z,99079.66
2022-09-20T17:49:21.828Z,99074.50
2022-09-20T17:51:56.730Z,99084.47
2022-09-20T17:54:24.728Z,99082.25
2022-09-20T17:56:53.557Z,99076.59
2022-09-20T17:59:20.998Z,99084.94
2022-09-20T18:01:50.226Z,99074.47
2022-09-20T18:04:18.783Z,99085.94
2022-09-20T18:06:50.520Z,99076.56
2022-09-20T18:09:19.799Z,99085.56
2022-09-20T18:11:51.591Z,99086.50
2022-09-20T18:14:24.740Z,99082.84
2022-09-20T18:16:53.204Z,99088.69
2022-09-20T18:19:25.149Z,99088.31
2022-09-20T18:21:52.492Z,99086.88
2022-09-20T18:24:19.809Z,99084.28
2022-09-20T18:26:47.811Z,99082.19
2022-09-20T18:29:18.242Z,99087.63
2022-09-20T18:31:51.005Z,99092.88
2022-09-20T18:34:23.866Z,99082.38
2022-09-20T18:36:54.751Z,99089.03
2022-09-20T18:39:23.572Z,99090.66
2022-09-20T18:41:53.352Z,99094.28
2022-09-20T18:44:22.753Z,99098.84
2022-09-20T18:47:03.848Z,99092.31
2022-09-20T18:49:32.256Z,99099.19
2022-09-20T18:52:00.161Z,99103.94
2022-09-20T18:54:32.331Z,99098.66
2022-09-20T18:57:00.484Z,99104.19
2022-09-20T18:59:29.672Z,99097.53
2022-09-20T19:01:57.247Z,99113.06
2022-09-20T19:04:55.063Z,99114.56
2022-09-20T19:07:28.741Z,99114.41
2022-09-20T19:10:38.186Z,99113.59
2022-09-20T19:13:43.306Z,99108.16
2022-09-20T19:16:20.833Z,99110.09
2022-09-20T19:18:59.066Z,99116.97
2022-09-20T19:21:38.453Z,99115.16
2022-09-20T19:24:39.908Z,99120.53
2022-09-20T19:27:11.578Z,99114.84
2022-09-20T19:29:39.785Z,99120.53
2022-09-20T19:32:13.918Z,99117.47
2022-09-20T19:34:43.656Z,99120.66
2022-09-20T19:37:19.223Z,99124.22
2022-09-20T19:40:09.161Z,99127.13
2022-09-20T19:43:09.380Z,99123.47
2022-09-20T19:45:48.716Z,99128.53
2022-09-20T19:48:29.917Z,99131.00
2022-09-20T19:50:58.772Z,99140.13
2022-09-20T19:53:28.432Z,99132.06
2022-09-20T19:56:01.894Z,99140.13
2022-09-20T19:58:29.520Z,99140.56
2022-09-20T20:00:58.377Z,99145.09
2022-09-20T20:03:27.796Z,99145.09
2022-09-20T20:06:07.090Z,99143.63
2022-09-20T20:08:51.057Z,99144.25
2022-09-20T20:11:29.179Z,99147.56
2022-09-20T20:14:16.953Z,99147.13
2022-09-20T20:17:01.308Z,99151.06
2022-09-20T20:19:49.357Z,99143.94
2022-09-20T20:22:40.961Z,99157.84
2022-09-20T20:25:22.014Z,99154.72
2022-09-20T20:27:49.102Z,99160.47
2022-09-20T20:30:16.968Z,99153.03
2022-09-20T20:32:47.802Z,99137.84
2022-09-20T20:35:15.134Z,99153.47
2022-09-20T20:37:42.671Z,99151.81
2022-09-20T20:40:15.044Z,99146.50
2022-09-20T20:42:44.047Z,99146.09
2022-09-20T20:45:14.031Z,99145.94
2022-09-20T20:47:43.497Z,99142.06
2022-09-20T20:50:13.129Z,99141.28
2022-09-20T20:52:40.254Z,99153.00
2022-09-20T20:55:07.860Z,99147.06
2022-09-20T20:57:38.412Z,99149.13
2022-09-20T21:00:06.894Z,99151.22
2022-09-20T21:02:34.991Z,99151.03
2022-09-20T21:05:01.977Z,99159.06
2022-09-20T21:07:31.315Z,99157.81
2022-09-20T21:09:58.822Z,99165.06
2022-09-20T21:12:26.952Z,99170.22
2022-09-20T21:14:54.222Z,99167.31
2022-09-20T21:17:21.295Z,99163.22
2022-09-20T21:19:48.405Z,99161.59
2022-09-20T21:22:15.347Z,99145.91
2022-09-20T21:24:42.453Z,99145.06
2022-09-20T21:27:09.612Z,99146.72
2022-09-20T21:29:36.970Z,99158.44
2022-09-20T21:32:04.180Z,99150.03
2022-09-20T21:34:31.294Z,99142.63
2022-09-20T21:36:58.459Z,99157.66
2022-09-20T21:39:25.429Z,99159.75
2022-09-20T21:41:52.514Z,99158.72
2022-09-20T21:44:20.669Z,99150.06
2022-09-20T21:46:48.595Z,99153.56
2022-09-20T21:49:15.847Z,99161.81
2022-09-20T21:51:43.123Z,99153.78
2022-09-20T21:54:11.097Z,99153.81
2022-09-20T21:56:39.307Z,99157.53
2022-09-20T21:59:07.899Z,99166.81
2022-09-20T22:01:40.434Z,99159.22
2022-09-20T22:04:11.710Z,99163.53
2022-09-20T22:06:43.519Z,99163.72
2022-09-20T22:09:17.802Z,99164.38
2022-09-20T22:11:48.823Z,99154.25
2022-09-20T22:14:18.331Z,99162.28
2022-09-20T22:16:46.236Z,99161.09
2022-09-20T22:19:15.086Z,99163.34
2022-09-20T22:21:44.540Z,99163.59
2022-09-20T22:24:13.687Z,99166.66
2022-09-20T22:26:49.099Z,99171.22
2022-09-20T22:29:16.274Z,99178.00
2022-09-20T22:31:45.672Z,99177.81
2022-09-20T22:34:18.549Z,99172.66
2022-09-20T22:36:45.986Z,99174.72
2022-09-20T22:39:13.533Z,99172.66
2022-09-20T22:41:41.636Z,99174.50
2022-09-20T22:44:09.210Z,99162.56
2022-09-20T22:46:36.649Z,99171.44
2022-09-20T22:49:08.169Z,99172.06
2022-09-20T22:51:35.714Z,99165.50
2022-09-20T22:54:07.753Z,99167.59
2022-09-20T22:56:35.433Z,99160.78
2022-09-20T22:59:06.548Z,99163.50
2022-09-20T23:01:35.939Z,99163.06
2022-09-20T23:04:07.888Z,99159.38
2022-09-20T23:06:42.179Z,99159.56
2022-09-20T23:09:11.858Z,99171.09
2022-09-20T23:11:39.994Z,99167.81
2022-09-20T23:14:06.904Z,99175.84
2022-09-20T23:16:35.881Z,99166.38
2022-09-20T23:19:04.718Z,99164.09
2022-09-20T23:21:32.610Z,99168.25
2022-09-20T23:24:02.121Z,99166.81
2022-09-20T23:26:30.990Z,99171.31
2022-09-20T23:29:03.078Z,99182.03
2022-09-20T23:31:32.063Z,99180.78
2022-09-20T23:34:01.165Z,99182.44
2022-09-20T23:36:32.953Z,99182.66
2022-09-20T23:39:00.079Z,99179.34
2022-09-20T23:41:28.376Z,99185.09
2022-09-20T23:43:57.714Z,99182.44
2022-09-20T23:46:26.491Z,99181.81
2022-09-20T23:48:53.978Z,99188.19
2022-09-20T23:51:23.747Z,99187.38
2022-09-20T23:53:51.594Z,99184.28
2022-09-20T23:56:19.127Z,99187.97
2022-09-20T23:58:46.537Z,99185.31
